sensor_id;sensor_type;location;lat;lon;timestamp;pressure;altitude;pressure_sealevel;temperature;humidity
8298;BME280;4187;42.778;23.242;2023-02-03T11:21:08;95838.53;;;7.55;79.20
8298;BME280;4187;42.778;23.242;2023-02-03T11:23:36;95839.06;;;7.36;74.86
8298;BME280;4187;42.778;23.242;2023-02-03T11:26:11;95817.81;;;7.63;75.32
8298;BME280;4187;42.778;23.242;2023-02-03T11:28:44;95822.94;;;7.99;72.43
8298;BME280;4187;42.778;23.242;2023-02-03T11:31:23;95818.03;;;8.29;71.83
8298;BME280;4187;42.778;23.242;2023-02-03T11:33:54;95824.16;;;8.17;70.12
8298;BME280;4187;42.778;23.242;2023-02-03T11:36:26;95812.56;;;8.09;70.73
8298;BME280;4187;42.778;23.242;2023-02-03T11:39:09;95826.09;;;8.26;71.33
8298;BME280;4187;42.778;23.242;2023-02-03T11:41:37;95804.38;;;8.80;83.65
8298;BME280;4187;42.778;23.242;2023-02-03T11:44:10;95821.78;;;9.14;72.02
8298;BME280;4187;42.778;23.242;2023-02-03T11:46:37;95810.78;;;9.20;65.01
8298;BME280;4187;42.778;23.242;2023-02-03T11:49:16;95784.94;;;9.03;64.39
8298;BME280;4187;42.778;23.242;2023-02-03T11:51:51;95820.38;;;9.10;63.96
8298;BME280;4187;42.778;23.242;2023-02-03T11:54:27;95812.66;;;9.29;65.17
8298;BME280;4187;42.778;23.242;2023-02-03T11:57:16;95810.31;;;9.04;62.85
8298;BME280;4187;42.778;23.242;2023-02-03T12:00:03;95803.03;;;8.96;64.09
8298;BME280;4187;42.778;23.242;2023-02-03T12:03:04;95820.16;;;9.02;67.54
8298;BME280;4187;42.778;23.242;2023-02-03T12:06:05;95815.50;;;8.94;62.97
8298;BME280;4187;42.778;23.242;2023-02-03T12:08:53;95810.34;;;8.82;63.28
8298;BME280;4187;42.778;23.242;2023-02-03T12:11:34;95813.84;;;8.71;64.41
8298;BME280;4187;42.778;23.242;2023-02-03T12:14:21;95760.03;;;8.42;61.48
8298;BME280;4187;42.778;23.242;2023-02-03T12:17:20;95809.66;;;8.58;65.40
8298;BME280;4187;42.778;23.242;2023-02-03T12:20:02;95806.41;;;8.65;65.91
8298;BME280;4187;42.778;23.242;2023-02-03T12:22:34;95804.63;;;8.66;63.38
8298;BME280;4187;42.778;23.242;2023-02-03T12:25:17;95798.88;;;8.83;64.83
8298;BME280;4187;42.778;23.242;2023-02-03T12:27:53;95792.41;;;8.87;61.39
8298;BME280;4187;42.778;23.242;2023-02-03T12:30:27;95800.06;;;8.90;63.97
8298;BME280;4187;42.778;23.242;2023-02-03T12:32:59;95801.03;;;8.89;64.43
8298;BME280;4187;42.778;23.242;2023-02-03T12:35:32;95796.94;;;8.85;65.74
8298;BME280;4187;42.778;23.242;2023-02-03T12:38:02;95794.94;;;8.77;64.98
8298;BME280;4187;42.778;23.242;2023-02-03T12:40:35;95800.06;;;8.90;65.29
8298;BME280;4187;42.778;23.242;2023-02-03T12:43:20;95797.66;;;8.87;63.20
8298;BME280;4187;42.778;23.242;2023-02-03T12:45:53;95784.78;;;8.73;66.64
8298;BME280;4187;42.778;23.242;2023-02-03T12:48:22;95791.22;;;8.35;65.97
8298;BME280;4187;42.778;23.242;2023-02-03T12:50:55;95794.25;;;7.96;66.18
8298;BME280;4187;42.778;23.242;2023-02-03T12:53:27;95798.56;;;7.97;66.48
8298;BME280;4187;42.778;23.242;2023-02-03T12:56:01;95797.94;;;8.28;64.46
8298;BME280;4187;42.778;23.242;2023-02-03T12:58:32;95795.72;;;8.22;62.04
8298;BME280;4187;42.778;23.242;2023-02-03T13:01:04;95800.69;;;8.27;61.55
8298;BME280;4187;42.778;23.242;2023-02-03T13:03:35;95787.19;;;8.54;63.06
8298;BME280;4187;42.778;23.242;2023-02-03T13:06:06;95794.84;;;8.57;59.64
8298;BME280;4187;42.778;23.242;2023-02-03T13:08:40;95789.31;;;8.71;59.80
8298;BME280;4187;42.778;23.242;2023-02-03T13:11:16;95799.88;;;8.49;60.76
8298;BME280;4187;42.778;23.242;2023-02-03T13:13:50;95785.88;;;8.37;62.13
8298;BME280;4187;42.778;23.242;2023-02-03T13:16:24;95779.84;;;8.24;62.12
8298;BME280;4187;42.778;23.242;2023-02-03T13:18:57;95783.09;;;8.27;64.38
8298;BME280;4187;42.778;23.242;2023-02-03T13:21:26;95787.53;;;8.38;64.62
8298;BME280;4187;42.778;23.242;2023-02-03T13:23:53;95777.50;;;8.43;63.34
8298;BME280;4187;42.778;23.242;2023-02-03T13:26:41;95782.63;;;8.45;65.09
8298;BME280;4187;42.778;23.242;2023-02-03T13:29:35;95768.78;;;8.31;66.87
8298;BME280;4187;42.778;23.242;2023-02-03T13:32:13;95778.50;;;8.07;67.70
8298;BME280;4187;42.778;23.242;2023-02-03T13:34:53;95785.34;;;8.21;68.11
8298;BME280;4187;42.778;23.242;2023-02-03T13:40:28;95785.19;;;8.00;70.28
8298;BME280;4187;42.778;23.242;2023-02-03T13:43:02;95786.41;;;8.07;70.12
8298;BME280;4187;42.778;23.242;2023-02-03T13:45:31;95790.34;;;8.13;68.89
8298;BME280;4187;42.778;23.242;2023-02-03T13:48:07;95789.75;;;8.20;69.34
8298;BME280;4187;42.778;23.242;2023-02-03T13:50:36;95801.16;;;8.32;68.61
8298;BME280;4187;42.778;23.242;2023-02-03T13:53:05;95799.34;;;8.55;69.28
8298;BME280;4187;42.778;23.242;2023-02-03T13:55:36;95788.00;;;8.65;66.89
8298;BME280;4187;42.778;23.242;2023-02-03T13:58:07;95795.31;;;8.39;68.17
8298;BME280;4187;42.778;23.242;2023-02-03T14:01:04;95799.84;;;8.37;69.32
8298;BME280;4187;42.778;23.242;2023-02-03T14:03:43;95797.94;;;8.51;67.53
8298;BME280;4187;42.778;23.242;2023-02-03T14:09:38;95793.19;;;7.99;69.88
8298;BME280;4187;42.778;23.242;2023-02-03T14:12:19;95796.13;;;7.72;70.34
8298;BME280;4187;42.778;23.242;2023-02-03T14:14:59;95792.59;;;7.60;70.78
8298;BME280;4187;42.778;23.242;2023-02-03T14:17:55;95797.41;;;7.32;71.79
8298;BME280;4187;42.778;23.242;2023-02-03T14:20:37;95785.13;;;7.32;72.21
8298;BME280;4187;42.778;23.242;2023-02-03T14:23:11;95788.47;;;7.10;73.11
8298;BME280;4187;42.778;23.242;2023-02-03T14:25:41;95783.59;;;6.93;74.00
8298;BME280;4187;42.778;23.242;2023-02-03T14:28:11;95783.25;;;6.74;75.26
8298;BME280;4187;42.778;23.242;2023-02-03T14:34:07;95782.47;;;6.48;75.18
8298;BME280;4187;42.778;23.242;2023-02-03T14:36:49;95788.06;;;6.31;75.70
8298;BME280;4187;42.778;23.242;2023-02-03T14:42:57;95784.94;;;5.88;77.80
8298;BME280;4187;42.778;23.242;2023-02-03T14:45:44;95786.59;;;5.89;78.53
8298;BME280;4187;42.778;23.242;2023-02-03T14:48:29;95777.59;;;5.93;78.13
8298;BME280;4187;42.778;23.242;2023-02-03T14:51:06;95780.94;;;5.95;79.37
8298;BME280;4187;42.778;23.242;2023-02-03T14:53:54;95778.69;;;5.77;78.80
8298;BME280;4187;42.778;23.242;2023-02-03T14:56:33;95773.88;;;5.58;79.86
8298;BME280;4187;42.778;23.242;2023-02-03T14:59:21;95770.94;;;5.63;79.85
8298;BME280;4187;42.778;23.242;2023-02-03T15:02:14;95761.81;;;5.68;79.97
8298;BME280;4187;42.778;23.242;2023-02-03T15:04:42;95712.09;;;5.43;80.93
8298;BME280;4187;42.778;23.242;2023-02-03T15:07:37;95748.84;;;5.79;80.41
8298;BME280;4187;42.778;23.242;2023-02-03T15:10:13;95738.88;;;5.84;80.63
8298;BME280;4187;42.778;23.242;2023-02-03T15:12:44;95732.13;;;5.94;80.49
8298;BME280;4187;42.778;23.242;2023-02-03T15:15:14;95729.25;;;5.97;79.77
8298;BME280;4187;42.778;23.242;2023-02-03T15:17:45;95729.47;;;6.07;80.11
8298;BME280;4187;42.778;23.242;2023-02-03T15:20:29;95729.16;;;6.12;80.13
8298;BME280;4187;42.778;23.242;2023-02-03T15:22:58;95728.91;;;6.27;79.61
8298;BME280;4187;42.778;23.242;2023-02-03T15:25:28;95701.25;;;6.23;80.09
8298;BME280;4187;42.778;23.242;2023-02-03T15:28:09;95720.97;;;6.29;80.46
8298;BME280;4187;42.778;23.242;2023-02-03T15:30:38;95718.38;;;6.16;80.44
8298;BME280;4187;42.778;23.242;2023-02-03T15:33:07;95725.31;;;6.05;81.82
8298;BME280;4187;42.778;23.242;2023-02-03T15:35:39;95723.72;;;5.89;83.27
8298;BME280;4187;42.778;23.242;2023-02-03T15:38:11;95720.25;;;5.76;84.00
8298;BME280;4187;42.778;23.242;2023-02-03T15:40:43;95719.53;;;5.74;84.92
8298;BME280;4187;42.778;23.242;2023-02-03T15:43:14;95713.25;;;5.64;84.55
8298;BME280;4187;42.778;23.242;2023-02-03T15:45:48;95714.69;;;5.56;85.37
8298;BME280;4187;42.778;23.242;2023-02-03T15:48:28;95711.31;;;5.41;85.89
8298;BME280;4187;42.778;23.242;2023-02-03T15:51:03;95705.97;;;5.17;86.25
8298;BME280;4187;42.778;23.242;2023-02-03T15:53:41;95715.25;;;5.09;86.52
8298;BME280;4187;42.778;23.242;2023-02-03T15:56:19;95695.69;;;5.02;87.05
8298;BME280;4187;42.778;23.242;2023-02-03T15:58:47;95703.41;;;5.03;86.69
8298;BME280;4187;42.778;23.242;2023-02-03T16:01:18;95696.06;;;4.83;86.23
8298;BME280;4187;42.778;23.242;2023-02-03T16:03:49;95709.28;;;4.67;86.61
8298;BME280;4187;42.778;23.242;2023-02-03T16:06:22;95708.28;;;4.56;86.95
8298;BME280;4187;42.778;23.242;2023-02-03T16:08:53;95697.91;;;4.54;87.69
8298;BME280;4187;42.778;23.242;2023-02-03T16:11:28;95688.31;;;4.55;86.94
8298;BME280;4187;42.778;23.242;2023-02-03T16:13:57;95700.34;;;4.57;86.34
8298;BME280;4187;42.778;23.242;2023-02-03T16:16:27;95689.63;;;4.62;85.94
8298;BME280;4187;42.778;23.242;2023-02-03T16:18:56;95681.09;;;4.46;85.73
8298;BME280;4187;42.778;23.242;2023-02-03T16:21:27;95680.94;;;4.35;86.25
8298;BME280;4187;42.778;23.242;2023-02-03T16:23:57;95675.81;;;4.19;86.86
8298;BME280;4187;42.778;23.242;2023-02-03T16:26:25;95667.25;;;4.03;87.18
8298;BME280;4187;42.778;23.242;2023-02-03T16:29:09;95662.25;;;4.00;88.20
8298;BME280;4187;42.778;23.242;2023-02-03T16:31:54;95659.00;;;3.96;88.29
8298;BME280;4187;42.778;23.242;2023-02-03T16:34:39;95647.34;;;3.88;89.11
8298;BME280;4187;42.778;23.242;2023-02-03T16:37:24;95649.88;;;3.75;89.02
8298;BME280;4187;42.778;23.242;2023-02-03T16:40:11;95649.34;;;3.56;89.87
8298;BME280;4187;42.778;23.242;2023-02-03T16:42:56;95629.66;;;3.22;91.76
8298;BME280;4187;42.778;23.242;2023-02-03T16:45:41;95639.00;;;3.40;91.32
8298;BME280;4187;42.778;23.242;2023-02-03T16:48:25;95637.50;;;3.36;91.32
8298;BME280;4187;42.778;23.242;2023-02-03T16:51:12;95631.25;;;3.25;92.38
8298;BME280;4187;42.778;23.242;2023-02-03T16:53:41;95584.50;;;2.93;93.17
8298;BME280;4187;42.778;23.242;2023-02-03T16:56:11;95629.41;;;3.27;92.73
8298;BME280;4187;42.778;23.242;2023-02-03T16:58:38;95620.63;;;3.28;92.94
8298;BME280;4187;42.778;23.242;2023-02-03T17:01:06;95620.16;;;3.35;93.06
8298;BME280;4187;42.778;23.242;2023-02-03T17:03:35;95622.78;;;3.35;93.22
8298;BME280;4187;42.778;23.242;2023-02-03T17:06:04;95618.50;;;3.34;93.42
8298;BME280;4187;42.778;23.242;2023-02-03T17:08:32;95583.47;;;3.10;93.61
8298;BME280;4187;42.778;23.242;2023-02-03T17:11:07;95612.19;;;3.24;94.40
8298;BME280;4187;42.778;23.242;2023-02-03T17:13:36;95609.19;;;3.16;94.81
8298;BME280;4187;42.778;23.242;2023-02-03T17:16:08;95610.41;;;3.11;94.92
8298;BME280;4187;42.778;23.242;2023-02-03T17:18:35;95594.91;;;2.93;95.58
8298;BME280;4187;42.778;23.242;2023-02-03T17:21:07;95604.13;;;2.85;95.92
8298;BME280;4187;42.778;23.242;2023-02-03T17:23:34;95598.06;;;2.84;95.88
8298;BME280;4187;42.778;23.242;2023-02-03T17:26:01;95595.56;;;2.83;96.12
8298;BME280;4187;42.778;23.242;2023-02-03T17:28:28;95604.41;;;2.80;96.37
8298;BME280;4187;42.778;23.242;2023-02-03T17:30:57;95592.66;;;2.87;96.42
8298;BME280;4187;42.778;23.242;2023-02-03T17:33:25;95586.72;;;2.85;95.86
8298;BME280;4187;42.778;23.242;2023-02-03T17:36:00;95581.56;;;2.84;95.83
8298;BME280;4187;42.778;23.242;2023-02-03T17:38:27;95566.88;;;2.83;95.68
8298;BME280;4187;42.778;23.242;2023-02-03T17:40:54;95564.63;;;2.77;96.55
8298;BME280;4187;42.778;23.242;2023-02-03T17:43:21;95561.66;;;2.69;97.50
8298;BME280;4187;42.778;23.242;2023-02-03T17:45:48;95553.00;;;2.68;97.77
8298;BME280;4187;42.778;23.242;2023-02-03T17:48:16;95551.69;;;2.61;97.45
8298;BME280;4187;42.778;23.242;2023-02-03T17:50:43;95545.25;;;2.53;97.70
8298;BME280;4187;42.778;23.242;2023-02-03T17:53:10;95544.13;;;2.42;98.15
8298;BME280;4187;42.778;23.242;2023-02-03T17:55:36;95546.25;;;2.50;97.98
8298;BME280;4187;42.778;23.242;2023-02-03T17:58:03;95547.50;;;2.59;98.15
8298;BME280;4187;42.778;23.242;2023-02-03T18:00:30;95551.41;;;2.66;97.68
8298;BME280;4187;42.778;23.242;2023-02-03T18:02:57;95541.13;;;2.78;97.60
8298;BME280;4187;42.778;23.242;2023-02-03T18:05:25;95545.56;;;2.76;97.38
8298;BME280;4187;42.778;23.242;2023-02-03T18:07:53;95534.50;;;2.73;98.11
8298;BME280;4187;42.778;23.242;2023-02-03T18:10:20;95528.34;;;2.74;97.95
8298;BME280;4187;42.778;23.242;2023-02-03T18:12:47;95524.31;;;2.68;97.94
8298;BME280;4187;42.778;23.242;2023-02-03T18:15:17;95518.75;;;2.74;100.00
8298;BME280;4187;42.778;23.242;2023-02-03T18:17:43;95528.16;;;2.77;100.00
8298;BME280;4187;42.778;23.242;2023-02-03T18:20:11;95520.25;;;2.64;98.82
8298;BME280;4187;42.778;23.242;2023-02-03T18:22:40;95523.56;;;2.52;100.00
8298;BME280;4187;42.778;23.242;2023-02-03T18:25:09;95531.06;;;2.28;100.00
8298;BME280;4187;42.778;23.242;2023-02-03T18:27:37;95519.50;;;2.18;100.00
8298;BME280;4187;42.778;23.242;2023-02-03T18:30:04;95520.53;;;2.16;100.00
8298;BME280;4187;42.778;23.242;2023-02-03T18:32:33;95517.53;;;2.08;100.00
8298;BME280;4187;42.778;23.242;2023-02-03T18:35:00;95510.47;;;2.10;100.00
8298;BME280;4187;42.778;23.242;2023-02-03T18:37:27;95511.38;;;2.09;100.00
8298;BME280;4187;42.778;23.242;2023-02-03T18:39:55;95513.13;;;2.08;100.00
8298;BME280;4187;42.778;23.242;2023-02-03T18:42:22;95515.38;;;2.14;100.00
8298;BME280;4187;42.778;23.242;2023-02-03T18:44:49;95505.41;;;2.07;100.00
8298;BME280;4187;42.778;23.242;2023-02-03T18:47:15;95510.13;;;2.00;100.00
8298;BME280;4187;42.778;23.242;2023-02-03T18:49:42;95509.56;;;1.95;100.00
8298;BME280;4187;42.778;23.242;2023-02-03T18:52:09;95496.19;;;2.01;100.00
8298;BME280;4187;42.778;23.242;2023-02-03T18:54:36;95500.50;;;2.02;100.00
8298;BME280;4187;42.778;23.242;2023-02-03T18:57:04;95492.59;;;2.04;100.00
8298;BME280;4187;42.778;23.242;2023-02-03T18:59:31;95491.75;;;2.03;100.00
8298;BME280;4187;42.778;23.242;2023-02-03T19:01:58;95485.44;;;2.07;100.00
8298;BME280;4187;42.778;23.242;2023-02-03T19:04:25;95471.69;;;2.05;100.00
8298;BME280;4187;42.778;23.242;2023-02-03T19:06:52;95443.09;;;1.90;100.00
8298;BME280;4187;42.778;23.242;2023-02-03T19:09:19;95450.94;;;2.04;100.00
8298;BME280;4187;42.778;23.242;2023-02-03T19:11:48;95454.88;;;2.11;100.00
8298;BME280;4187;42.778;23.242;2023-02-03T19:14:16;95455.81;;;2.24;100.00
8298;BME280;4187;42.778;23.242;2023-02-03T19:16:43;95434.63;;;2.16;100.00
8298;BME280;4187;42.778;23.242;2023-02-03T19:19:11;95442.53;;;2.28;100.00
8298;BME280;4187;42.778;23.242;2023-02-03T19:21:38;95429.78;;;2.24;100.00
8298;BME280;4187;42.778;23.242;2023-02-03T19:24:11;95428.59;;;2.29;100.00
8298;BME280;4187;42.778;23.242;2023-02-03T19:26:38;95421.34;;;2.34;100.00
8298;BME280;4187;42.778;23.242;2023-02-03T19:29:04;95421.41;;;2.33;100.00
8298;BME280;4187;42.778;23.242;2023-02-03T19:31:33;95366.91;;;2.02;100.00
8298;BME280;4187;42.778;23.242;2023-02-03T19:34:00;95409.06;;;2.36;100.00
8298;BME280;4187;42.778;23.242;2023-02-03T19:36:27;95414.53;;;2.46;100.00
8298;BME280;4187;42.778;23.242;2023-02-03T19:38:55;95410.63;;;2.39;100.00
8298;BME280;4187;42.778;23.242;2023-02-03T19:41:22;95405.53;;;2.37;100.00
8298;BME280;4187;42.778;23.242;2023-02-03T19:43:50;95400.75;;;2.30;100.00
8298;BME280;4187;42.778;23.242;2023-02-03T19:46:17;95391.56;;;2.38;100.00
8298;BME280;4187;42.778;23.242;2023-02-03T19:48:47;95395.09;;;2.37;100.00
8298;BME280;4187;42.778;23.242;2023-02-03T19:51:14;95385.25;;;2.42;100.00
8298;BME280;4187;42.778;23.242;2023-02-03T19:53:41;95387.00;;;2.42;100.00
8298;BME280;4187;42.778;23.242;2023-02-03T19:56:08;95382.47;;;2.31;100.00
8298;BME280;4187;42.778;23.242;2023-02-03T19:58:35;95388.50;;;2.32;100.00
8298;BME280;4187;42.778;23.242;2023-02-03T20:01:03;95380.22;;;2.25;100.00
8298;BME280;4187;42.778;23.242;2023-02-03T20:03:29;95385.25;;;2.28;100.00
8298;BME280;4187;42.778;23.242;2023-02-03T20:05:58;95379.13;;;2.29;100.00
8298;BME280;4187;42.778;23.242;2023-02-03T20:08:25;95380.94;;;2.27;100.00
8298;BME280;4187;42.778;23.242;2023-02-03T20:10:52;95376.41;;;2.17;100.00
8298;BME280;4187;42.778;23.242;2023-02-03T20:13:19;95383.38;;;2.30;100.00
8298;BME280;4187;42.778;23.242;2023-02-03T20:15:45;95369.44;;;2.31;100.00
8298;BME280;4187;42.778;23.242;2023-02-03T20:18:12;95367.94;;;2.27;100.00
8298;BME280;4187;42.778;23.242;2023-02-03T20:20:39;95372.03;;;2.31;100.00
8298;BME280;4187;42.778;23.242;2023-02-03T20:23:07;95373.88;;;2.43;100.00
8298;BME280;4187;42.778;23.242;2023-02-03T20:25:34;95365.41;;;2.54;100.00
8298;BME280;4187;42.778;23.242;2023-02-03T20:28:01;95374.16;;;2.53;100.00
8298;BME280;4187;42.778;23.242;2023-02-03T20:30:28;95362.53;;;2.59;100.00
8298;BME280;4187;42.778;23.242;2023-02-03T20:32:55;95364.66;;;2.52;100.00
8298;BME280;4187;42.778;23.242;2023-02-03T20:35:22;95366.84;;;2.46;100.00
8298;BME280;4187;42.778;23.242;2023-02-03T20:37:50;95362.25;;;2.49;100.00
8298;BME280;4187;42.778;23.242;2023-02-03T20:40:20;95355.19;;;2.51;100.00
8298;BME280;4187;42.778;23.242;2023-02-03T20:42:47;95361.81;;;2.57;100.00
8298;BME280;4187;42.778;23.242;2023-02-03T20:45:15;95361.06;;;2.40;100.00
8298;BME280;4187;42.778;23.242;2023-02-03T20:47:43;95368.78;;;2.42;100.00
8298;BME280;4187;42.778;23.242;2023-02-03T20:50:13;95363.75;;;2.53;100.00
8298;BME280;4187;42.778;23.242;2023-02-03T20:52:42;95362.25;;;2.49;100.00
8298;BME280;4187;42.778;23.242;2023-02-03T20:55:11;95364.59;;;2.54;100.00
8298;BME280;4187;42.778;23.242;2023-02-03T20:57:40;95354.06;;;2.41;100.00
8298;BME280;4187;42.778;23.242;2023-02-03T21:00:13;95346.38;;;2.39;100.00
8298;BME280;4187;42.778;23.242;2023-02-03T21:02:40;95346.25;;;2.41;100.00
8298;BME280;4187;42.778;23.242;2023-02-03T21:05:23;95345.44;;;2.40;100.00
8298;BME280;4187;42.778;23.242;2023-02-03T21:07:50;95355.19;;;2.51;100.00
8298;BME280;4187;42.778;23.242;2023-02-03T21:10:19;95338.63;;;2.52;100.00
8298;BME280;4187;42.778;23.242;2023-02-03T21:12:48;95323.22;;;2.35;100.00
8298;BME280;4187;42.778;23.242;2023-02-03T21:15:19;95337.81;;;2.37;100.00
8298;BME280;4187;42.778;23.242;2023-02-03T21:17:47;95330.81;;;2.38;100.00
8298;BME280;4187;42.778;23.242;2023-02-03T21:20:23;95328.44;;;2.35;100.00
8298;BME280;4187;42.778;23.242;2023-02-03T21:22:50;95329.91;;;2.39;100.00
8298;BME280;4187;42.778;23.242;2023-02-03T21:25:26;95328.44;;;2.35;100.00
8298;BME280;4187;42.778;23.242;2023-02-03T21:27:59;95328.50;;;2.33;100.00
8298;BME280;4187;42.778;23.242;2023-02-03T21:30:28;95313.06;;;2.16;100.00
8298;BME280;4187;42.778;23.242;2023-02-03T21:32:57;95331.97;;;2.20;100.00
8298;BME280;4187;42.778;23.242;2023-02-03T21:35:28;95327.66;;;2.33;100.00
8298;BME280;4187;42.778;23.242;2023-02-03T21:37:56;95317.34;;;2.31;100.00
8298;BME280;4187;42.778;23.242;2023-02-03T21:40:27;95290.41;;;2.18;100.00
8298;BME280;4187;42.778;23.242;2023-02-03T21:42:55;95311.19;;;2.47;100.00
8298;BME280;4187;42.778;23.242;2023-02-03T21:45:35;95309.13;;;2.52;100.00
8298;BME280;4187;42.778;23.242;2023-02-03T21:48:22;95312.31;;;2.57;100.00
8298;BME280;4187;42.778;23.242;2023-02-03T21:50:50;95314.34;;;2.52;100.00
8298;BME280;4187;42.778;23.242;2023-02-03T21:53:24;95316.38;;;2.61;100.00
8298;BME280;4187;42.778;23.242;2023-02-03T21:55:51;95303.53;;;2.58;100.00
8298;BME280;4187;42.778;23.242;2023-02-03T21:58:21;95316.69;;;2.56;100.00
8298;BME280;4187;42.778;23.242;2023-02-03T22:00:51;95315.47;;;2.62;100.00
8298;BME280;4187;42.778;23.242;2023-02-03T22:03:23;95301.03;;;2.56;100.00
8298;BME280;4187;42.778;23.242;2023-02-03T22:05:50;95306.25;;;2.56;100.00
8298;BME280;4187;42.778;23.242;2023-02-03T22:08:18;95287.00;;;2.45;100.00
8298;BME280;4187;42.778;23.242;2023-02-03T22:10:45;95285.69;;;2.52;100.00
8298;BME280;4187;42.778;23.242;2023-02-03T22:13:12;95269.16;;;2.38;100.00
8298;BME280;4187;42.778;23.242;2023-02-03T22:15:39;95302.31;;;2.63;100.00
8298;BME280;4187;42.778;23.242;2023-02-03T22:18:07;95237.22;;;2.22;100.00
8298;BME280;4187;42.778;23.242;2023-02-03T22:20:35;95301.28;;;2.66;100.00
8298;BME280;4187;42.778;23.242;2023-02-03T22:23:02;95296.19;;;2.64;100.00
8298;BME280;4187;42.778;23.242;2023-02-03T22:25:29;95288.00;;;2.70;100.00
8298;BME280;4187;42.778;23.242;2023-02-03T22:27:56;95284.38;;;2.59;100.00
8298;BME280;4187;42.778;23.242;2023-02-03T22:30:22;95272.41;;;2.56;100.00
8298;BME280;4187;42.778;23.242;2023-02-03T22:32:49;95267.06;;;2.58;100.00
8298;BME280;4187;42.778;23.242;2023-02-03T22:35:17;95272.13;;;2.47;100.00
8298;BME280;4187;42.778;23.242;2023-02-03T22:37:44;95267.69;;;2.34;100.00
8298;BME280;4187;42.778;23.242;2023-02-03T22:40:11;95264.16;;;2.35;100.00
8298;BME280;4187;42.778;23.242;2023-02-03T22:42:38;95264.59;;;2.42;100.00
8298;BME280;4187;42.778;23.242;2023-02-03T22:45:06;95257.81;;;2.39;100.00
8298;BME280;4187;42.778;23.242;2023-02-03T22:47:33;95255.78;;;2.30;100.00
8298;BME280;4187;42.778;23.242;2023-02-03T22:50:00;95258.69;;;2.26;100.00
8298;BME280;4187;42.778;23.242;2023-02-03T22:52:29;95251.34;;;2.32;100.00
8298;BME280;4187;42.778;23.242;2023-02-03T22:54:56;95248.84;;;2.17;100.00
8298;BME280;4187;42.778;23.242;2023-02-03T22:57:22;95247.63;;;2.22;100.00
8298;BME280;4187;42.778;23.242;2023-02-03T22:59:49;95248.94;;;2.29;100.00
8298;BME280;4187;42.778;23.242;2023-02-03T23:02:16;95238.88;;;2.23;100.00
8298;BME280;4187;42.778;23.242;2023-02-03T23:04:43;95237.59;;;2.16;100.00
8298;BME280;4187;42.778;23.242;2023-02-03T23:07:10;95226.44;;;2.14;100.00
8298;BME280;4187;42.778;23.242;2023-02-03T23:09:39;95214.72;;;2.21;100.00
8298;BME280;4187;42.778;23.242;2023-02-03T23:12:06;95205.72;;;2.13;100.00
8298;BME280;4187;42.778;23.242;2023-02-03T23:14:33;95205.06;;;2.09;100.00
8298;BME280;4187;42.778;23.242;2023-02-03T23:17:00;95197.44;;;2.06;100.00
8298;BME280;4187;42.778;23.242;2023-02-03T23:19:27;95194.97;;;2.05;100.00
8298;BME280;4187;42.778;23.242;2023-02-03T23:21:54;95192.72;;;1.99;100.00
8298;BME280;4187;42.778;23.242;2023-02-03T23:24:21;95190.13;;;1.99;100.00
8298;BME280;4187;42.778;23.242;2023-02-03T23:26:49;95177.59;;;1.91;100.00
8298;BME280;4187;42.778;23.242;2023-02-03T23:29:16;95164.28;;;1.96;100.00
8298;BME280;4187;42.778;23.242;2023-02-03T23:31:43;95155.28;;;1.87;100.00
8298;BME280;4187;42.778;23.242;2023-02-03T23:34:09;95153.22;;;1.92;100.00
8298;BME280;4187;42.778;23.242;2023-02-03T23:37:05;95149.22;;;2.01;100.00
8298;BME280;4187;42.778;23.242;2023-02-03T23:39:32;95143.94;;;2.02;100.00
8298;BME280;4187;42.778;23.242;2023-02-03T23:42:00;95152.09;;;2.10;100.00
8298;BME280;4187;42.778;23.242;2023-02-03T23:44:27;95141.34;;;2.02;100.00
8298;BME280;4187;42.778;23.242;2023-02-03T23:46:53;95147.50;;;2.14;100.00
8298;BME280;4187;42.778;23.242;2023-02-03T23:49:20;95136.38;;;2.12;100.00
8298;BME280;4187;42.778;23.242;2023-02-03T23:51:47;95145.75;;;2.14;100.00
8298;BME280;4187;42.778;23.242;2023-02-03T23:54:14;95148.88;;;2.19;100.00
8298;BME280;4187;42.778;23.242;2023-02-03T23:56:41;95145.25;;;2.22;100.00
8298;BME280;4187;42.778;23.242;2023-02-03T23:59:09;95138.81;;;2.27;100.00
